createdAt,value
2018-06-13T00:00:28.125Z,8.00
2018-06-13T00:01:01.473Z,6.50
2018-06-13T00:01:35.444Z,8.40
2018-06-13T00:02:15.325Z,7.85
2018-06-13T00:03:58.486Z,7.55
2018-06-13T00:04:32.916Z,7.65
2018-06-13T00:05:06.078Z,7.50
2018-06-13T00:05:40.102Z,7.45
2018-06-13T00:06:13.358Z,7.75
2018-06-13T00:06:46.725Z,7.60
2018-06-13T00:07:20.745Z,7.93
2018-06-13T00:07:55.623Z,7.32
2018-06-13T00:08:28.842Z,7.95
2018-06-13T00:12:20.061Z,7.87
2018-06-13T00:12:54.718Z,7.62
2018-06-13T00:13:27.908Z,7.80
2018-06-13T00:14:01.286Z,8.20
2018-06-13T00:14:35.530Z,8.23
2018-06-13T00:15:09.736Z,8.90
2018-06-13T00:15:43.157Z,7.70
2018-06-13T00:16:17.275Z,7.78
2018-06-13T00:16:51.225Z,7.53
2018-06-13T00:17:24.590Z,7.55
2018-06-13T00:17:58.009Z,7.70
2018-06-13T00:18:31.296Z,8.15
2018-06-13T00:19:04.505Z,8.10
2018-06-13T00:19:37.941Z,7.70
2018-06-13T00:20:11.141Z,7.32
2018-06-13T00:20:44.445Z,7.32
2018-06-13T00:21:17.457Z,7.45
2018-06-13T00:21:51.509Z,7.57
2018-06-13T00:22:24.606Z,8.07
2018-06-13T00:22:57.678Z,8.25
2018-06-13T00:23:31.893Z,7.75
2018-06-13T00:24:05.136Z,7.45
2018-06-13T00:24:39.605Z,7.47
2018-06-13T00:25:12.848Z,7.97
2018-06-13T00:25:47.120Z,8.20
2018-06-13T00:26:20.223Z,7.72
2018-06-13T00:26:53.273Z,7.97
2018-06-13T00:27:27.932Z,7.35
2018-06-13T00:28:01.103Z,7.93
2018-06-13T00:28:34.505Z,7.45
2018-06-13T00:29:07.805Z,7.65
2018-06-13T00:29:41.264Z,6.70
2018-06-13T00:30:14.352Z,7.50
2018-06-13T00:30:47.569Z,7.87
2018-06-13T00:31:20.768Z,8.07
2018-06-13T00:31:54.572Z,7.80
2018-06-13T00:32:27.833Z,8.00
2018-06-13T00:33:01.141Z,8.60
2018-06-13T00:33:34.282Z,8.68
2018-06-13T00:34:07.397Z,7.87
2018-06-13T00:34:40.756Z,7.75
2018-06-13T00:35:13.927Z,7.93
2018-06-13T00:35:47.253Z,8.23
2018-06-13T00:36:20.636Z,7.05
2018-06-13T00:36:54.046Z,8.23
2018-06-13T00:37:27.208Z,8.25
2018-06-13T00:38:00.423Z,7.75
2018-06-13T00:38:34.335Z,8.40
2018-06-13T00:39:07.647Z,8.07
2018-06-13T00:39:40.775Z,8.25
2018-06-13T00:40:13.944Z,8.15
2018-06-13T00:40:47.034Z,7.60
2018-06-13T00:41:20.582Z,8.15
2018-06-13T00:41:53.729Z,7.93
2018-06-13T00:43:27.684Z,8.00
2018-06-13T00:44:01.663Z,8.27
2018-06-13T00:44:35.689Z,7.62
2018-06-13T00:45:08.799Z,8.23
2018-06-13T00:53:38.868Z,7.00
2018-06-13T00:54:12.030Z,8.15
2018-06-13T00:54:46.812Z,8.07
2018-06-13T00:55:20.891Z,7.85
2018-06-13T00:55:54.952Z,8.15
2018-06-13T00:56:28.056Z,9.07
2018-06-13T00:57:01.845Z,8.45
2018-06-13T00:57:35.866Z,8.32
2018-06-13T00:58:10.672Z,8.43
2018-06-13T00:58:45.000Z,8.02
2018-06-13T00:59:18.213Z,8.10
2018-06-13T00:59:51.665Z,8.05
2018-06-13T01:00:25.976Z,8.20
2018-06-13T01:00:59.049Z,8.82
2018-06-13T01:01:32.228Z,8.40
2018-06-13T01:04:12.024Z,8.27
2018-06-13T01:04:46.051Z,7.95
2018-06-13T01:05:19.483Z,7.43
2018-06-13T01:05:52.561Z,8.05
2018-06-13T01:06:25.935Z,8.40
2018-06-13T01:06:59.072Z,8.40
2018-06-13T01:07:34.886Z,8.13
2018-06-13T01:08:09.105Z,8.55
2018-06-13T01:08:42.300Z,7.45
2018-06-13T01:09:15.448Z,8.00
2018-06-13T01:09:49.519Z,8.15
2018-06-13T01:10:23.323Z,8.13
2018-06-13T01:10:56.541Z,7.62
2018-06-13T01:11:29.732Z,7.57
2018-06-13T01:12:03.066Z,8.00
2018-06-13T01:12:36.171Z,7.45
2018-06-13T01:13:10.274Z,7.50
2018-06-13T01:13:43.448Z,8.13
2018-06-13T01:14:16.616Z,8.55
2018-06-13T01:14:50.528Z,7.30
2018-06-13T01:15:23.779Z,8.27
2018-06-13T01:15:57.570Z,7.72
2018-06-13T01:16:30.731Z,8.07
2018-06-13T01:17:03.849Z,7.05
2018-06-13T01:17:36.994Z,7.93
2018-06-13T01:18:10.985Z,8.15
2018-06-13T01:18:44.068Z,8.27
2018-06-13T01:19:17.181Z,8.20
2018-06-13T01:19:50.423Z,7.97
2018-06-13T01:20:23.535Z,8.38
2018-06-13T01:20:56.719Z,8.00
2018-06-13T01:21:29.799Z,7.65
2018-06-13T01:23:12.617Z,8.10
2018-06-13T01:23:45.870Z,8.95
2018-06-13T01:24:19.911Z,8.52
2018-06-13T01:24:53.764Z,7.43
2018-06-13T01:25:26.887Z,7.80
2018-06-13T01:26:01.324Z,8.25
2018-06-13T01:26:34.428Z,7.72
2018-06-13T01:27:07.481Z,8.50
2018-06-13T01:27:41.471Z,7.68
2018-06-13T01:28:14.550Z,7.72
2018-06-13T01:28:47.587Z,8.70
2018-06-13T01:29:21.841Z,9.02
2018-06-13T01:29:55.798Z,8.13
2018-06-13T01:30:29.728Z,8.60
2018-06-13T01:31:03.134Z,8.35
2018-06-13T01:31:36.627Z,8.25
2018-06-13T01:32:09.937Z,9.05
2018-06-13T01:32:43.028Z,8.25
2018-06-13T01:33:16.981Z,8.65
2018-06-13T01:33:50.200Z,8.15
2018-06-13T01:34:23.242Z,8.38
2018-06-13T01:34:56.348Z,9.05
2018-06-13T01:35:29.408Z,9.18
2018-06-13T01:36:02.552Z,8.55
2018-06-13T01:36:35.597Z,8.32
2018-06-13T01:37:08.673Z,8.65
2018-06-13T01:38:21.818Z,9.15
2018-06-13T01:38:54.860Z,8.90
2018-06-13T01:39:28.245Z,9.10
2018-06-13T01:40:01.565Z,9.00
2018-06-13T01:40:34.678Z,9.43
2018-06-13T01:41:07.826Z,9.63
2018-06-13T01:41:40.933Z,8.70
2018-06-13T01:42:14.175Z,9.07
2018-06-13T01:42:47.312Z,9.02
2018-06-13T01:43:20.576Z,8.90
2018-06-13T01:43:53.764Z,9.10
2018-06-13T01:44:27.019Z,8.93
2018-06-13T01:45:00.207Z,8.98
2018-06-13T01:45:34.068Z,9.55
2018-06-13T01:46:07.846Z,9.10
2018-06-13T01:46:40.884Z,9.88
2018-06-13T01:47:14.101Z,9.77
2018-06-13T01:47:47.212Z,9.60
2018-06-13T01:48:20.334Z,10.65
2018-06-13T01:48:53.424Z,10.13
2018-06-13T01:49:26.659Z,9.50
2018-06-13T01:50:00.561Z,9.90
2018-06-13T01:50:34.360Z,9.23
2018-06-13T01:51:07.563Z,10.15
2018-06-13T01:51:41.565Z,10.50
2018-06-13T01:52:14.666Z,10.18
2018-06-13T01:52:47.756Z,10.20
2018-06-13T01:53:20.888Z,10.15
2018-06-13T01:53:53.972Z,10.38
2018-06-13T01:54:27.075Z,10.02
2018-06-13T01:55:00.191Z,9.80
2018-06-13T01:55:33.208Z,10.48
2018-06-13T01:56:06.372Z,10.90
2018-06-13T01:56:39.526Z,10.13
2018-06-13T01:57:12.657Z,9.80
2018-06-13T01:57:46.548Z,10.65
2018-06-13T01:58:19.621Z,9.80
2018-06-13T01:58:52.971Z,10.95
2018-06-13T01:59:26.933Z,9.70
2018-06-13T02:00:00.113Z,10.68
2018-06-13T02:00:34.052Z,11.02
2018-06-13T02:01:07.226Z,10.50
2018-06-13T02:01:40.321Z,10.70
2018-06-13T02:02:13.517Z,9.82
2018-06-13T02:02:46.657Z,10.80
2018-06-13T02:03:19.789Z,11.43
2018-06-13T02:03:53.596Z,11.82
2018-06-13T02:04:26.670Z,10.07
2018-06-13T02:04:59.765Z,10.57
2018-06-13T02:05:32.944Z,11.80
2018-06-13T02:06:06.780Z,9.98
2018-06-13T02:06:39.981Z,10.80
2018-06-13T02:07:13.120Z,11.95
2018-06-13T02:07:46.190Z,10.70
2018-06-13T02:08:19.345Z,12.20
2018-06-13T02:08:52.421Z,11.02
2018-06-13T02:09:25.932Z,10.73
2018-06-13T02:09:59.063Z,10.82
2018-06-13T02:10:32.229Z,11.52
2018-06-13T02:11:05.305Z,11.10
2018-06-13T02:11:39.933Z,11.65
2018-06-13T02:12:13.302Z,11.60
2018-06-13T02:12:47.332Z,11.25
2018-06-13T02:13:20.432Z,11.68
2018-06-13T02:13:53.551Z,12.40
2018-06-13T02:14:26.904Z,11.12
2018-06-13T02:15:00.395Z,10.90
2018-06-13T02:15:33.856Z,11.07
2018-06-13T02:16:07.023Z,10.52
2018-06-13T02:16:40.177Z,11.38
2018-06-13T02:17:14.372Z,11.73
2018-06-13T02:17:48.957Z,11.38
2018-06-13T02:18:22.403Z,11.82
2018-06-13T02:18:55.536Z,11.35
2018-06-13T02:19:28.640Z,11.55
2018-06-13T02:20:01.821Z,12.15
2018-06-13T02:20:34.906Z,11.80
2018-06-13T02:21:08.009Z,11.20
2018-06-13T02:21:41.254Z,11.95
2018-06-13T02:22:14.351Z,11.30
2018-06-13T02:22:47.570Z,11.48
2018-06-13T02:23:20.683Z,11.30
2018-06-13T02:23:54.848Z,11.82
2018-06-13T02:24:27.994Z,11.30
2018-06-13T02:25:01.106Z,10.18
2018-06-13T02:25:34.592Z,11.57
2018-06-13T02:26:07.844Z,10.60
2018-06-13T02:26:40.933Z,11.05
2018-06-13T02:27:14.107Z,10.70
2018-06-13T02:27:47.169Z,11.38
2018-06-13T02:28:20.562Z,10.98
2018-06-13T02:28:53.652Z,10.95
2018-06-13T02:29:26.693Z,10.65
2018-06-13T02:29:59.866Z,11.20
2018-06-13T02:30:32.957Z,10.60
2018-06-13T02:31:06.821Z,10.52
2018-06-13T02:31:40.182Z,10.55
2018-06-13T02:32:13.264Z,11.12
2018-06-13T02:32:46.328Z,11.35
2018-06-13T02:33:19.383Z,10.23
2018-06-13T02:33:53.082Z,10.52
2018-06-13T02:34:26.192Z,11.77
2018-06-13T02:35:38.728Z,11.50
2018-06-13T02:36:11.997Z,11.63
2018-06-13T02:36:45.105Z,11.57
2018-06-13T02:37:18.926Z,11.00
2018-06-13T02:37:52.111Z,10.90
2018-06-13T02:38:25.157Z,10.77
2018-06-13T02:38:59.082Z,11.05
2018-06-13T02:39:32.954Z,11.40
2018-06-13T02:40:06.764Z,11.40
2018-06-13T02:40:39.902Z,11.10
2018-06-13T02:41:12.985Z,9.88
2018-06-13T02:41:46.840Z,10.57
2018-06-13T02:42:19.985Z,11.20
2018-06-13T02:42:53.093Z,11.88
2018-06-13T02:43:26.394Z,11.77
2018-06-13T02:44:00.323Z,11.07
2018-06-13T02:44:33.633Z,10.23
2018-06-13T02:45:06.720Z,9.85
2018-06-13T02:45:39.796Z,10.40
2018-06-13T02:46:13.205Z,11.00
2018-06-13T02:47:26.464Z,10.77
2018-06-13T02:48:00.043Z,10.77
2018-06-13T02:48:33.212Z,10.68
2018-06-13T02:49:06.344Z,11.60
2018-06-13T02:49:40.205Z,10.70
2018-06-13T02:50:13.517Z,11.30
2018-06-13T02:50:46.686Z,10.05
2018-06-13T02:51:19.820Z,10.60
2018-06-13T02:51:52.906Z,10.70
2018-06-13T02:52:26.016Z,10.25
2018-06-13T02:52:59.104Z,11.60
2018-06-13T02:53:32.979Z,11.60
2018-06-13T02:54:06.296Z,10.45
2018-06-13T02:54:40.262Z,10.55
2018-06-13T02:55:14.614Z,11.23
2018-06-13T02:55:48.464Z,10.30
2018-06-13T02:56:21.555Z,10.88
2018-06-13T02:56:54.860Z,11.40
2018-06-13T02:57:28.793Z,10.80
2018-06-13T02:58:01.868Z,10.90
2018-06-13T02:58:35.016Z,10.50
2018-06-13T02:59:08.105Z,12.10
2018-06-13T02:59:41.403Z,10.98
2018-06-13T03:00:14.556Z,10.43
2018-06-13T03:00:47.699Z,11.63
2018-06-13T03:01:21.122Z,10.82
2018-06-13T03:01:54.226Z,11.38
2018-06-13T03:02:27.605Z,10.23
2018-06-13T03:03:00.803Z,10.88
2018-06-13T03:03:33.949Z,10.75
2018-06-13T03:04:07.000Z,10.50
2018-06-13T03:04:40.347Z,10.60
2018-06-13T03:05:13.416Z,10.05
2018-06-13T03:05:46.605Z,10.43
2018-06-13T03:06:19.687Z,10.38
2018-06-13T03:06:53.524Z,10.70
2018-06-13T03:12:14.852Z,9.52
2018-06-13T03:12:47.944Z,9.98
2018-06-13T03:13:21.144Z,11.10
2018-06-13T03:13:54.287Z,10.43
2018-06-13T03:15:06.788Z,11.32
2018-06-13T03:15:39.852Z,10.52
2018-06-13T03:16:13.117Z,10.63
2018-06-13T03:16:47.880Z,10.07
2018-06-13T03:17:21.023Z,11.07
2018-06-13T03:17:54.037Z,11.07
2018-06-13T03:18:28.654Z,10.93
2018-06-13T03:19:01.728Z,10.20
2018-06-13T03:19:37.746Z,10.60
2018-06-13T03:20:11.071Z,10.88
2018-06-13T03:20:44.192Z,10.60
2018-06-13T03:21:17.264Z,10.45
2018-06-13T03:21:50.517Z,10.70
2018-06-13T03:22:24.000Z,11.27
2018-06-13T03:22:57.149Z,10.75
2018-06-13T03:23:30.328Z,10.68
2018-06-13T03:24:03.366Z,10.75
2018-06-13T03:24:36.488Z,10.70
2018-06-13T03:25:09.856Z,10.90
2018-06-13T03:25:42.930Z,9.70
2018-06-13T03:26:16.044Z,9.35
2018-06-13T03:26:49.949Z,10.57
2018-06-13T03:27:23.043Z,10.82
2018-06-13T03:27:56.209Z,11.85
2018-06-13T03:28:29.241Z,10.82
2018-06-13T03:29:03.797Z,11.30
2018-06-13T03:29:36.894Z,10.38
2018-06-13T03:30:09.971Z,10.32
2018-06-13T03:30:43.068Z,10.45
2018-06-13T03:31:16.149Z,11.18
2018-06-13T03:31:50.764Z,11.27
2018-06-13T03:32:23.852Z,11.07
2018-06-13T03:32:56.912Z,10.93
2018-06-13T03:33:30.720Z,11.38
2018-06-13T03:34:03.780Z,11.12
2018-06-13T03:34:36.844Z,10.45
2018-06-13T03:35:09.927Z,11.45
2018-06-13T03:35:43.077Z,10.32
2018-06-13T03:36:16.132Z,10.27
2018-06-13T03:36:49.247Z,10.85
2018-06-13T03:37:22.378Z,11.30
2018-06-13T03:37:56.451Z,11.23
2018-06-13T03:38:29.551Z,11.75
2018-06-13T03:39:02.846Z,10.77
2018-06-13T03:39:35.934Z,9.90
2018-06-13T03:40:09.531Z,10.90
2018-06-13T03:40:42.605Z,9.77
2018-06-13T03:41:15.665Z,10.30
2018-06-13T03:41:48.964Z,10.32
2018-06-13T03:42:22.174Z,10.90
2018-06-13T03:42:56.196Z,9.85
2018-06-13T03:43:29.290Z,9.88
2018-06-13T03:44:02.401Z,10.25
2018-06-13T03:44:35.487Z,10.05
2018-06-13T03:45:09.305Z,10.95
2018-06-13T03:45:42.359Z,10.20
2018-06-13T03:46:15.450Z,8.82
2018-06-13T03:47:51.967Z,9.02
2018-06-13T03:48:25.032Z,9.82
2018-06-13T03:48:58.075Z,9.65
2018-06-13T03:49:31.335Z,8.95
2018-06-13T03:50:04.905Z,8.90
2018-06-13T03:50:37.947Z,9.68
2018-06-13T03:51:11.014Z,8.85
2018-06-13T03:51:45.669Z,9.38
2018-06-13T03:52:18.945Z,8.77
2018-06-13T03:52:52.031Z,8.05
2018-06-13T03:53:25.080Z,9.05
2018-06-13T03:53:58.135Z,8.63
2018-06-13T03:54:31.197Z,8.00
2018-06-13T03:55:04.277Z,7.95
2018-06-13T03:55:37.342Z,7.37
2018-06-13T03:56:10.426Z,7.87
2018-06-13T03:56:44.215Z,7.47
2018-06-13T03:57:17.247Z,7.43
2018-06-13T03:57:50.315Z,7.72
2018-06-13T03:58:23.359Z,7.50
2018-06-13T03:58:56.393Z,6.68
2018-06-13T03:59:31.120Z,7.00
2018-06-13T04:00:04.172Z,7.20
2018-06-13T04:00:37.624Z,7.05
2018-06-13T04:01:11.189Z,7.75
2018-06-13T04:01:44.302Z,7.05
2018-06-13T04:02:17.268Z,6.53
2018-06-13T04:02:51.049Z,6.45
2018-06-13T04:03:24.416Z,6.47
2018-06-13T04:03:57.450Z,6.85
2018-06-13T04:04:30.756Z,7.25
2018-06-13T04:05:04.267Z,6.85
2018-06-13T04:05:37.293Z,6.68
2018-06-13T04:06:11.287Z,7.20
2018-06-13T04:06:44.308Z,6.97
2018-06-13T04:07:17.340Z,6.80
2018-06-13T04:07:50.352Z,6.50
2018-06-13T04:08:23.404Z,7.10
2018-06-13T04:08:56.435Z,6.78
2018-06-13T04:09:29.463Z,6.60
2018-06-13T04:10:03.278Z,7.00
2018-06-13T04:10:36.304Z,6.53
2018-06-13T04:11:09.328Z,6.50
2018-06-13T04:11:42.368Z,6.55
2018-06-13T04:12:15.399Z,6.40
2018-06-13T04:12:49.252Z,6.55
2018-06-13T04:13:22.288Z,6.53
2018-06-13T04:13:56.084Z,6.65
2018-06-13T04:14:29.112Z,6.37
2018-06-13T04:15:02.157Z,6.60
2018-06-13T04:15:35.420Z,6.50
2018-06-13T04:16:08.458Z,6.35
2018-06-13T04:16:41.478Z,6.00
2018-06-13T04:17:16.307Z,5.95
2018-06-13T04:17:49.678Z,6.47
2018-06-13T04:18:23.458Z,6.00
2018-06-13T04:18:56.513Z,6.87
2018-06-13T04:19:29.553Z,5.95
2018-06-13T04:20:02.597Z,6.37
2018-06-13T04:20:35.974Z,6.00
2018-06-13T04:21:09.024Z,6.05
2018-06-13T04:21:42.055Z,6.85
2018-06-13T04:22:15.095Z,6.30
2018-06-13T04:22:48.139Z,5.45
2018-06-13T04:23:21.465Z,5.72
2018-06-13T04:23:55.232Z,6.28
2018-06-13T04:24:28.265Z,5.87
2018-06-13T04:25:02.641Z,6.18
2018-06-13T04:25:35.675Z,5.80
2018-06-13T04:26:08.976Z,5.60
2018-06-13T04:26:42.005Z,5.85
2018-06-13T04:27:15.028Z,5.40
2018-06-13T04:27:48.097Z,5.60
2018-06-13T04:28:21.903Z,5.82
2018-06-13T04:28:55.679Z,5.78
2018-06-13T04:29:28.699Z,6.05
2018-06-13T04:30:01.760Z,6.20
2018-06-13T04:30:34.796Z,6.22
2018-06-13T04:31:09.419Z,6.07
2018-06-13T04:31:43.212Z,5.70
2018-06-13T04:32:17.228Z,5.78
2018-06-13T04:32:50.572Z,5.53
2018-06-13T04:33:23.615Z,6.03
2018-06-13T04:33:56.944Z,5.15
2018-06-13T04:34:30.352Z,5.60
2018-06-13T04:35:03.418Z,6.15
2018-06-13T04:35:36.457Z,5.55
2018-06-13T04:36:09.531Z,6.00
2018-06-13T04:36:42.559Z,5.47
2018-06-13T04:37:15.601Z,5.30
2018-06-13T04:37:49.001Z,5.78
2018-06-13T04:38:22.021Z,5.65
2018-06-13T04:38:55.056Z,5.10
2018-06-13T04:39:28.088Z,6.15
2018-06-13T04:40:01.510Z,5.55
2018-06-13T04:40:34.542Z,6.25
2018-06-13T04:41:08.070Z,6.32
2018-06-13T04:41:42.100Z,5.62
2018-06-13T04:42:25.295Z,5.90
2018-06-13T04:42:58.417Z,5.40
2018-06-13T04:43:32.436Z,6.00
2018-06-13T04:44:45.388Z,5.85
2018-06-13T04:45:18.631Z,6.28
2018-06-13T04:45:51.684Z,5.87
2018-06-13T04:46:25.391Z,5.90
2018-06-13T04:46:59.333Z,5.72
2018-06-13T04:47:32.425Z,6.05
2018-06-13T04:48:05.610Z,6.47
2018-06-13T04:48:41.255Z,5.85
2018-06-13T04:49:15.846Z,5.47
2018-06-13T04:49:49.057Z,5.62
2018-06-13T04:50:22.390Z,6.22
2018-06-13T04:50:55.635Z,6.50
2018-06-13T04:51:29.716Z,5.95
2018-06-13T04:52:02.764Z,6.25
2018-06-13T04:52:36.264Z,5.62
2018-06-13T04:53:09.286Z,6.53
2018-06-13T04:53:42.568Z,5.80
2018-06-13T04:54:15.747Z,6.75
2018-06-13T04:54:49.917Z,5.97
2018-06-13T04:55:23.892Z,6.30
2018-06-13T04:55:57.973Z,5.97
2018-06-13T04:57:10.492Z,5.62
2018-06-13T04:57:43.709Z,5.45
2018-06-13T04:58:17.031Z,6.50
2018-06-13T04:58:50.037Z,6.05
2018-06-13T04:59:23.245Z,5.90
2018-06-13T04:59:56.341Z,6.45
2018-06-13T05:00:29.733Z,6.43
2018-06-13T05:01:02.791Z,6.43
2018-06-13T05:01:35.818Z,6.18
2018-06-13T05:02:09.402Z,5.75
2018-06-13T05:02:42.717Z,5.82
2018-06-13T05:03:16.042Z,5.93
2018-06-13T05:03:49.173Z,5.65
2018-06-13T05:04:23.070Z,6.53
2018-06-13T05:04:56.256Z,5.20
2018-06-13T05:05:29.362Z,5.28
2018-06-13T05:06:02.760Z,5.18
2018-06-13T05:07:15.848Z,5.95
2018-06-13T05:07:49.134Z,5.43
2018-06-13T05:08:25.118Z,6.03
2018-06-13T05:08:58.474Z,5.90
2018-06-13T05:09:31.822Z,6.10
2018-06-13T05:10:05.373Z,5.25
2018-06-13T05:10:39.462Z,5.82
2018-06-13T05:11:13.084Z,5.30
2018-06-13T05:11:46.254Z,5.12
2018-06-13T05:12:37.454Z,5.07
2018-06-13T05:13:10.511Z,5.28
2018-06-13T05:13:43.615Z,4.72
2018-06-13T05:14:16.643Z,4.85
2018-06-13T05:14:50.504Z,5.57
2018-06-13T05:15:23.517Z,5.70
2018-06-13T05:15:56.641Z,5.70
2018-06-13T05:16:29.801Z,5.12
2018-06-13T05:17:03.832Z,5.78
2018-06-13T05:17:36.877Z,5.60
2018-06-13T05:18:09.961Z,5.50
2018-06-13T05:18:42.992Z,5.72
2018-06-13T05:19:16.156Z,5.90
2018-06-13T05:19:49.269Z,5.35
2018-06-13T05:20:23.086Z,5.65
2018-06-13T05:20:56.956Z,5.93
2018-06-13T05:21:31.500Z,5.62
2018-06-13T05:22:04.544Z,5.70
2018-06-13T05:22:37.643Z,5.60
2018-06-13T05:23:10.860Z,6.10
2018-06-13T05:23:44.742Z,5.57
2018-06-13T05:24:18.112Z,4.87
2018-06-13T05:24:51.907Z,5.70
2018-06-13T05:25:25.700Z,5.75
2018-06-13T05:25:59.728Z,5.20
2018-06-13T05:26:33.720Z,5.20
2018-06-13T05:27:07.995Z,5.50
2018-06-13T05:27:41.195Z,5.05
2018-06-13T05:28:14.405Z,5.15
2018-06-13T05:28:48.875Z,5.60
2018-06-13T05:29:21.930Z,5.82
2018-06-13T05:29:54.981Z,5.22
2018-06-13T05:30:28.824Z,5.18
2018-06-13T05:31:01.905Z,5.55
2018-06-13T05:31:34.962Z,5.25
2018-06-13T05:32:08.956Z,5.60
2018-06-13T05:32:42.300Z,5.50
2018-06-13T05:33:15.882Z,5.40
2018-06-13T05:33:48.968Z,5.15
2018-06-13T05:34:22.028Z,5.10
2018-06-13T05:34:55.086Z,5.60
2018-06-13T05:35:28.183Z,5.10
2018-06-13T05:36:01.232Z,5.45
2018-06-13T05:36:35.796Z,5.30
2018-06-13T05:37:09.603Z,5.20
2018-06-13T05:37:42.748Z,5.57
2018-06-13T05:38:15.803Z,5.60
2018-06-13T05:38:50.904Z,4.95
2018-06-13T05:44:59.899Z,5.12
2018-06-13T05:45:33.068Z,5.10
2018-06-13T05:46:06.138Z,4.85
2018-06-13T05:46:41.047Z,6.07
2018-06-13T05:47:14.196Z,4.90
2018-06-13T05:47:47.317Z,5.47
2018-06-13T05:48:20.362Z,4.90
2018-06-13T05:48:53.550Z,5.10
2018-06-13T05:49:26.684Z,5.47
2018-06-13T05:50:00.848Z,6.05
2018-06-13T05:50:34.970Z,4.62
2018-06-13T05:51:09.328Z,5.05
2018-06-13T05:51:43.401Z,5.47
2018-06-13T05:52:16.492Z,4.87
2018-06-13T05:52:49.774Z,4.72
2018-06-13T05:53:23.040Z,6.07
2018-06-13T05:53:56.824Z,5.00
2018-06-13T05:54:30.180Z,5.40
2018-06-13T05:55:03.271Z,4.87
2018-06-13T05:55:36.451Z,5.72
2018-06-13T05:56:10.184Z,5.05
2018-06-13T05:56:43.211Z,5.12
2018-06-13T05:57:16.228Z,5.12
2018-06-13T05:57:49.266Z,5.03
2018-06-13T05:58:22.302Z,5.12
2018-06-13T05:58:55.335Z,4.70
2018-06-13T05:59:28.359Z,4.85
2018-06-13T06:00:01.380Z,4.93
2018-06-13T06:00:34.411Z,4.87
2018-06-13T06:01:07.492Z,5.10
2018-06-13T06:01:41.668Z,5.03
2018-06-13T06:02:22.494Z,5.05
2018-06-13T06:02:56.492Z,5.20
2018-06-13T06:03:29.604Z,4.90
2018-06-13T06:04:03.932Z,5.03
2018-06-13T06:04:38.147Z,4.75
2018-06-13T06:05:11.308Z,4.85
2018-06-13T06:05:45.063Z,4.93
2018-06-13T06:08:25.667Z,4.43
2018-06-13T06:08:58.686Z,5.45
2018-06-13T06:09:32.626Z,5.05
2018-06-13T06:10:05.796Z,5.57
2018-06-13T06:10:40.123Z,5.30
2018-06-13T06:11:13.199Z,5.37
2018-06-13T06:11:48.711Z,4.53
2018-06-13T06:12:23.518Z,5.10
2018-06-13T06:12:57.324Z,5.10
2018-06-13T06:13:30.482Z,5.12
2018-06-13T06:14:04.578Z,4.87
2018-06-13T06:14:38.598Z,5.05
2018-06-13T06:15:12.448Z,5.22
2018-06-13T06:17:52.403Z,5.43
2018-06-13T06:18:26.995Z,5.57
2018-06-13T06:19:40.652Z,5.55
2018-06-13T06:21:37.966Z,5.43
2018-06-13T06:22:11.196Z,6.70
2018-06-13T06:22:44.326Z,5.40
2018-06-13T06:23:19.198Z,6.20
2018-06-13T06:23:53.032Z,5.18
2018-06-13T06:24:26.361Z,5.80
2018-06-13T06:25:00.506Z,5.53
2018-06-13T06:25:33.656Z,5.90
2018-06-13T06:26:06.924Z,6.00
2018-06-13T06:26:40.100Z,5.68
2018-06-13T06:27:14.230Z,5.50
2018-06-13T06:27:47.467Z,5.75
2018-06-13T06:28:20.568Z,5.32
2018-06-13T06:28:53.646Z,5.57
2018-06-13T06:29:27.548Z,5.22
2018-06-13T06:30:00.572Z,5.50
2018-06-13T06:30:33.954Z,5.62
2018-06-13T06:31:07.059Z,5.47
2018-06-13T06:31:41.228Z,5.72
2018-06-13T06:32:14.540Z,5.47
2018-06-13T06:32:47.811Z,5.35
2018-06-13T06:33:21.657Z,5.43
2018-06-13T06:33:55.048Z,5.62
2018-06-13T06:34:28.066Z,5.30
2018-06-13T06:35:01.243Z,6.15
2018-06-13T06:35:34.534Z,6.05
2018-06-13T06:36:08.373Z,5.80
2018-06-13T06:36:43.389Z,5.85
2018-06-13T06:37:16.561Z,5.82
2018-06-13T06:37:49.621Z,5.37
2018-06-13T06:38:23.448Z,5.87
2018-06-13T06:38:56.850Z,5.97
2018-06-13T06:40:09.656Z,5.80
2018-06-13T06:40:42.772Z,5.85
2018-06-13T06:41:16.240Z,5.45
2018-06-13T06:41:49.302Z,5.68
2018-06-13T06:43:53.825Z,5.30
2018-06-13T06:45:37.307Z,5.40
2018-06-13T06:46:11.308Z,5.55
2018-06-13T06:46:45.335Z,5.10
2018-06-13T06:47:19.630Z,5.60
2018-06-13T06:47:52.795Z,5.80
2018-06-13T06:48:25.888Z,6.32
2018-06-13T06:48:59.908Z,5.40
2018-06-13T06:49:33.167Z,5.50
2018-06-13T06:50:06.704Z,5.55
2018-06-13T06:50:40.655Z,5.55
2018-06-13T06:51:15.028Z,5.20
2018-06-13T06:51:49.212Z,5.30
2018-06-13T06:52:22.478Z,4.70
2018-06-13T06:52:57.124Z,5.00
2018-06-13T06:53:30.573Z,5.47
2018-06-13T06:54:23.135Z,5.07
2018-06-13T06:54:58.714Z,4.97
2018-06-13T06:55:32.721Z,4.53
2018-06-13T06:56:05.782Z,4.40
2018-06-13T06:56:39.736Z,5.32
2018-06-13T06:57:13.786Z,5.28
2018-06-13T06:57:46.932Z,4.90
2018-06-13T06:58:19.971Z,4.87
2018-06-13T06:58:53.981Z,4.90
2018-06-13T06:59:28.282Z,4.53
2018-06-13T07:00:02.565Z,5.10
2018-06-13T07:00:49.839Z,4.68
2018-06-13T07:02:52.671Z,4.85
2018-06-13T07:03:26.704Z,4.28
2018-06-13T07:04:00.667Z,5.18
2018-06-13T07:04:34.680Z,3.97
2018-06-13T07:05:21.360Z,4.43
2018-06-13T07:05:55.097Z,4.50
2018-06-13T07:06:29.159Z,4.40
2018-06-13T07:07:03.397Z,4.68
2018-06-13T07:07:37.440Z,4.80
2018-06-13T07:08:11.390Z,4.50
2018-06-13T07:08:45.441Z,5.10
2018-06-13T07:11:45.034Z,4.60
2018-06-13T07:12:19.213Z,4.32
2018-06-13T07:12:52.412Z,4.18
2018-06-13T07:13:25.527Z,4.57
2018-06-13T07:13:59.724Z,5.90
2018-06-13T07:14:32.986Z,4.40
2018-06-13T07:15:06.766Z,4.40
2018-06-13T07:15:41.378Z,4.22
2018-06-13T07:16:15.317Z,4.35
2018-06-13T07:18:05.162Z,4.10
2018-06-13T07:18:38.303Z,3.60
2018-06-13T07:19:12.268Z,3.67
2018-06-13T07:19:46.192Z,4.30
2018-06-13T07:20:19.927Z,4.25
2018-06-13T07:20:53.890Z,4.43
2018-06-13T07:21:28.121Z,4.43
2018-06-13T07:22:14.323Z,4.12
2018-06-13T07:23:09.190Z,4.32
2018-06-13T07:23:43.163Z,3.85
2018-06-13T07:24:17.440Z,3.97
2018-06-13T07:24:51.015Z,3.72
2018-06-13T07:25:25.208Z,3.95
2018-06-13T07:25:58.261Z,4.32
2018-06-13T07:26:32.232Z,4.32
2018-06-13T07:27:07.004Z,4.30
2018-06-13T07:29:08.556Z,3.58
2018-06-13T07:29:42.674Z,3.62
2018-06-13T07:30:16.893Z,3.60
2018-06-13T07:30:50.097Z,3.95
2018-06-13T07:31:24.264Z,4.07
2018-06-13T07:34:57.708Z,3.67
2018-06-13T07:35:31.696Z,3.80
2018-06-13T07:37:34.956Z,3.50
2018-06-13T07:39:16.523Z,4.20
2018-06-13T07:39:50.514Z,3.58
2018-06-13T07:40:47.965Z,4.22
2018-06-13T07:41:21.766Z,4.00
2018-06-13T07:42:15.684Z,4.37
2018-06-13T07:42:49.608Z,4.20
2018-06-13T07:46:41.894Z,3.78
2018-06-13T07:47:14.950Z,3.62
2018-06-13T07:47:48.990Z,3.58
2018-06-13T07:57:32.129Z,3.50
2018-06-13T08:01:30.265Z,3.60
2018-06-13T08:05:31.820Z,3.37
2018-06-13T08:06:21.628Z,3.85
2018-06-13T08:09:01.418Z,3.42
2018-06-13T08:09:51.607Z,3.50
2018-06-13T08:10:24.685Z,3.95
2018-06-13T08:10:58.733Z,3.67
2018-06-13T08:12:44.463Z,3.60
2018-06-13T08:14:26.227Z,3.78
2018-06-13T08:15:00.233Z,3.58
2018-06-13T08:15:56.396Z,3.75
2018-06-13T08:18:55.220Z,3.37
2018-06-13T08:19:29.176Z,3.15
2018-06-13T08:20:02.480Z,3.72
2018-06-13T08:20:35.557Z,3.65
2018-06-13T08:21:09.836Z,3.37
2018-06-13T08:21:44.177Z,4.05
2018-06-13T08:22:20.078Z,3.33
2018-06-13T08:26:21.131Z,3.58
2018-06-13T08:26:55.107Z,3.25
2018-06-13T08:27:28.182Z,3.60
2018-06-13T08:28:02.140Z,3.60
2018-06-13T08:28:35.612Z,3.78
2018-06-13T08:29:09.732Z,4.43
2018-06-13T08:29:43.718Z,3.53
2018-06-13T08:30:16.825Z,3.70
2018-06-13T08:30:50.889Z,3.92
2018-06-13T08:32:33.637Z,3.33
2018-06-13T08:33:06.823Z,3.40
2018-06-13T08:33:39.984Z,3.40
2018-06-13T08:34:13.109Z,3.47
2018-06-13T08:34:46.415Z,3.75
2018-06-13T08:35:19.477Z,3.85
2018-06-13T08:38:10.679Z,3.97
2018-06-13T08:38:43.848Z,3.75
2018-06-13T08:39:18.556Z,3.85
2018-06-13T08:39:52.644Z,4.78
2018-06-13T08:50:55.956Z,4.15
2018-06-13T08:52:38.596Z,4.05
2018-06-13T08:53:13.069Z,4.00
2018-06-13T08:53:48.142Z,3.92
2018-06-13T08:54:22.140Z,4.55
2018-06-13T08:54:55.303Z,4.25
2018-06-13T08:55:29.516Z,4.65
2018-06-13T08:58:19.800Z,4.32
2018-06-13T08:58:53.954Z,4.10
2018-06-13T08:59:29.016Z,4.57
2018-06-13T09:00:03.328Z,4.10
2018-06-13T09:00:37.451Z,4.37
2018-06-13T09:01:11.507Z,4.07
2018-06-13T09:01:44.968Z,3.60
2018-06-13T09:02:18.093Z,4.30
2018-06-13T09:06:19.301Z,3.80
2018-06-13T09:06:52.375Z,4.03
2018-06-13T09:08:43.203Z,4.05
2018-06-13T09:09:17.156Z,3.90
2018-06-13T09:09:50.993Z,3.97
2018-06-13T09:10:24.335Z,3.70
2018-06-13T09:12:10.250Z,4.03
2018-06-13T09:12:44.265Z,4.18
2018-06-13T09:13:17.520Z,3.55
2018-06-13T09:13:51.582Z,3.60